sensor_id;sensor_type;location;lat;lon;timestamp;pressure;altitude;pressure_sealevel;temperature;humidity
63285;BME280;49409;55.708;37.522;2022-09-09T00:01:08;100096.81;;;12.29;49.44
63285;BME280;49409;55.708;37.522;2022-09-09T00:03:47;100106.22;;;12.35;49.81
63285;BME280;49409;55.708;37.522;2022-09-09T00:06:22;100103.00;;;12.40;50.08
63285;BME280;49409;55.708;37.522;2022-09-09T00:09:14;100084.06;;;12.42;49.95
63285;BME280;49409;55.708;37.522;2022-09-09T00:15:05;100110.81;;;12.45;49.66
63285;BME280;49409;55.708;37.522;2022-09-09T00:17:50;100096.81;;;12.29;50.21
63285;BME280;49409;55.708;37.522;2022-09-09T00:20:46;100105.47;;;12.31;50.34
63285;BME280;49409;55.708;37.522;2022-09-09T00:26:02;100104.03;;;12.16;50.48
63285;BME280;49409;55.708;37.522;2022-09-09T00:28:32;100105.66;;;12.13;50.19
63285;BME280;49409;55.708;37.522;2022-09-09T00:31:12;100107.09;;;12.25;50.33
63285;BME280;49409;55.708;37.522;2022-09-09T00:33:38;100087.69;;;11.94;50.10
63285;BME280;49409;55.708;37.522;2022-09-09T00:36:12;100096.31;;;12.00;50.56
63285;BME280;49409;55.708;37.522;2022-09-09T00:38:52;100109.56;;;12.16;50.32
63285;BME280;49409;55.708;37.522;2022-09-09T00:49:39;100118.16;;;12.25;50.53
63285;BME280;49409;55.708;37.522;2022-09-09T00:57:26;100110.78;;;12.11;50.54
63285;BME280;49409;55.708;37.522;2022-09-09T01:11:24;100144.47;;;12.33;50.51
63285;BME280;49409;55.708;37.522;2022-09-09T01:14:02;100143.41;;;12.20;50.59
63285;BME280;49409;55.708;37.522;2022-09-09T01:16:29;100125.78;;;12.06;51.07
63285;BME280;49409;55.708;37.522;2022-09-09T01:18:58;100139.53;;;12.14;51.00
63285;BME280;49409;55.708;37.522;2022-09-09T01:24:40;100154.00;;;12.25;51.19
63285;BME280;49409;55.708;37.522;2022-09-09T01:27:08;100141.22;;;12.00;51.51
63285;BME280;49409;55.708;37.522;2022-09-09T01:29:35;100156.97;;;12.03;51.37
63285;BME280;49409;55.708;37.522;2022-09-09T01:32:37;100157.28;;;12.13;51.54
63285;BME280;49409;55.708;37.522;2022-09-09T01:35:04;100142.91;;;11.87;51.65
63285;BME280;49409;55.708;37.522;2022-09-09T01:37:31;100157.09;;;11.89;52.03
63285;BME280;49409;55.708;37.522;2022-09-09T01:39:56;100142.19;;;11.79;52.15
63285;BME280;49409;55.708;37.522;2022-09-09T01:42:21;100138.69;;;11.71;52.06
63285;BME280;49409;55.708;37.522;2022-09-09T01:44:47;100161.81;;;11.85;51.83
63285;BME280;49409;55.708;37.522;2022-09-09T01:47:14;100143.50;;;11.60;52.06
63285;BME280;49409;55.708;37.522;2022-09-09T01:49:40;100153.28;;;11.68;52.08
63285;BME280;49409;55.708;37.522;2022-09-09T01:52:05;100171.31;;;11.80;52.52
63285;BME280;49409;55.708;37.522;2022-09-09T01:54:32;100174.91;;;11.74;52.37
63285;BME280;49409;55.708;37.522;2022-09-09T02:00:10;100180.03;;;11.71;52.51
63285;BME280;49409;55.708;37.522;2022-09-09T02:02:58;100165.16;;;11.62;53.28
63285;BME280;49409;55.708;37.522;2022-09-09T02:08:23;100181.19;;;11.78;52.44
63285;BME280;49409;55.708;37.522;2022-09-09T02:10:58;100191.50;;;11.63;52.93
63285;BME280;49409;55.708;37.522;2022-09-09T02:13:25;100170.00;;;11.43;53.09
63285;BME280;49409;55.708;37.522;2022-09-09T02:16:18;100189.94;;;11.62;53.29
63285;BME280;49409;55.708;37.522;2022-09-09T02:21:22;100201.47;;;11.46;53.45
63285;BME280;49409;55.708;37.522;2022-09-09T02:23:49;100192.09;;;11.32;53.90
63285;BME280;49409;55.708;37.522;2022-09-09T02:26:19;100201.13;;;11.37;54.16
63285;BME280;49409;55.708;37.522;2022-09-09T02:28:51;100197.59;;;11.29;53.88
63285;BME280;49409;55.708;37.522;2022-09-09T02:31:20;100188.19;;;11.26;53.87
63285;BME280;49409;55.708;37.522;2022-09-09T02:33:52;100200.75;;;11.27;54.05
63285;BME280;49409;55.708;37.522;2022-09-09T02:36:19;100203.50;;;11.31;54.29
63285;BME280;49409;55.708;37.522;2022-09-09T02:38:47;100203.13;;;11.25;54.43
63285;BME280;49409;55.708;37.522;2022-09-09T02:41:21;100209.41;;;11.33;54.26
63285;BME280;49409;55.708;37.522;2022-09-09T02:43:48;100206.31;;;11.20;54.27
63285;BME280;49409;55.708;37.522;2022-09-09T02:46:36;100216.56;;;11.20;54.66
63285;BME280;49409;55.708;37.522;2022-09-09T02:49:15;100223.25;;;11.15;54.68
63285;BME280;49409;55.708;37.522;2022-09-09T02:56:50;100230.81;;;10.97;54.97
63285;BME280;49409;55.708;37.522;2022-09-09T02:59:16;100234.34;;;10.94;54.81
63285;BME280;49409;55.708;37.522;2022-09-09T03:01:43;100230.03;;;10.89;55.07
63285;BME280;49409;55.708;37.522;2022-09-09T03:04:09;100233.19;;;10.84;55.06
63285;BME280;49409;55.708;37.522;2022-09-09T03:06:35;100227.72;;;10.77;55.60
63285;BME280;49409;55.708;37.522;2022-09-09T03:09:01;100235.16;;;10.76;55.40
63285;BME280;49409;55.708;37.522;2022-09-09T03:11:28;100226.56;;;10.63;55.40
63285;BME280;49409;55.708;37.522;2022-09-09T03:13:54;100223.03;;;10.59;55.39
63285;BME280;49409;55.708;37.522;2022-09-09T03:16:24;100234.81;;;10.67;55.24
63285;BME280;49409;55.708;37.522;2022-09-09T03:18:49;100219.09;;;10.64;55.44
63285;BME280;49409;55.708;37.522;2022-09-09T03:21:15;100220.66;;;10.61;55.38
63285;BME280;49409;55.708;37.522;2022-09-09T03:23:41;100222.63;;;10.57;55.68
63285;BME280;49409;55.708;37.522;2022-09-09T03:26:07;100211.25;;;10.44;56.25
63285;BME280;49409;55.708;37.522;2022-09-09T03:28:33;100222.66;;;10.54;55.81
63285;BME280;49409;55.708;37.522;2022-09-09T03:31:04;100232.44;;;10.58;56.29
63285;BME280;49409;55.708;37.522;2022-09-09T03:33:30;100234.03;;;10.59;55.89
63285;BME280;49409;55.708;37.522;2022-09-09T03:35:56;100247.03;;;10.59;56.01
63285;BME280;49409;55.708;37.522;2022-09-09T03:38:25;100248.19;;;10.61;56.68
63285;BME280;49409;55.708;37.522;2022-09-09T03:40:52;100221.47;;;10.37;56.12
63285;BME280;49409;55.708;37.522;2022-09-09T03:43:21;100257.22;;;10.62;56.00
63285;BME280;49409;55.708;37.522;2022-09-09T03:45:47;100252.09;;;10.67;56.36
63285;BME280;49409;55.708;37.522;2022-09-09T03:48:14;100255.63;;;10.82;56.15
63285;BME280;49409;55.708;37.522;2022-09-09T03:50:51;100252.00;;;11.14;56.16
63285;BME280;49409;55.708;37.522;2022-09-09T03:53:19;100264.50;;;11.37;55.48
63285;BME280;49409;55.708;37.522;2022-09-09T03:55:46;100258.09;;;11.61;55.00
63285;BME280;49409;55.708;37.522;2022-09-09T03:58:15;100259.13;;;11.82;54.17
63285;BME280;49409;55.708;37.522;2022-09-09T04:00:41;100238.22;;;11.88;53.91
63285;BME280;49409;55.708;37.522;2022-09-09T04:03:10;100275.41;;;12.28;53.38
63285;BME280;49409;55.708;37.522;2022-09-09T04:05:35;100253.66;;;12.34;52.85
63285;BME280;49409;55.708;37.522;2022-09-09T04:08:06;100262.19;;;12.50;52.67
63285;BME280;49409;55.708;37.522;2022-09-09T04:10:32;100269.94;;;12.66;52.71
63285;BME280;49409;55.708;37.522;2022-09-09T04:12:57;100262.06;;;12.65;52.02
63285;BME280;49409;55.708;37.522;2022-09-09T04:15:24;100252.44;;;12.80;52.27
63285;BME280;49409;55.708;37.522;2022-09-09T04:17:50;100251.38;;;13.05;51.71
63285;BME280;49409;55.708;37.522;2022-09-09T04:20:15;100275.59;;;13.28;51.02
63285;BME280;49409;55.708;37.522;2022-09-09T04:22:41;100273.94;;;13.38;50.70
63285;BME280;49409;55.708;37.522;2022-09-09T04:25:07;100277.03;;;13.43;50.77
63285;BME280;49409;55.708;37.522;2022-09-09T04:27:32;100276.81;;;13.58;50.80
63285;BME280;49409;55.708;37.522;2022-09-09T04:29:58;100255.56;;;13.55;49.99
63285;BME280;49409;55.708;37.522;2022-09-09T04:32:24;100261.28;;;13.67;49.51
63285;BME280;49409;55.708;37.522;2022-09-09T04:34:52;100274.81;;;13.89;49.26
63285;BME280;49409;55.708;37.522;2022-09-09T04:37:17;100264.59;;;13.86;49.43
63285;BME280;49409;55.708;37.522;2022-09-09T04:39:43;100215.09;;;13.64;49.26
63285;BME280;49409;55.708;37.522;2022-09-09T04:42:08;100257.59;;;14.05;48.90
63285;BME280;49409;55.708;37.522;2022-09-09T04:44:34;100257.78;;;14.18;48.40
63285;BME280;49409;55.708;37.522;2022-09-09T04:46:59;100272.50;;;14.38;47.92
63285;BME280;49409;55.708;37.522;2022-09-09T04:49:25;100251.06;;;14.42;47.64
63285;BME280;49409;55.708;37.522;2022-09-09T04:51:51;100264.78;;;14.50;47.23
63285;BME280;49409;55.708;37.522;2022-09-09T04:54:17;100267.56;;;14.73;47.08
63285;BME280;49409;55.708;37.522;2022-09-09T04:56:42;100255.03;;;14.65;46.50
63285;BME280;49409;55.708;37.522;2022-09-09T04:59:08;100276.44;;;14.84;46.06
63285;BME280;49409;55.708;37.522;2022-09-09T05:01:35;100292.03;;;14.98;46.05
63285;BME280;49409;55.708;37.522;2022-09-09T05:04:02;100282.25;;;15.14;45.81
63285;BME280;49409;55.708;37.522;2022-09-09T05:06:27;100278.34;;;15.11;45.38
63285;BME280;49409;55.708;37.522;2022-09-09T05:08:54;100280.75;;;15.09;45.02
63285;BME280;49409;55.708;37.522;2022-09-09T05:11:21;100283.19;;;15.07;44.96
63285;BME280;49409;55.708;37.522;2022-09-09T05:13:48;100277.69;;;15.03;45.08
63285;BME280;49409;55.708;37.522;2022-09-09T05:16:16;100293.63;;;15.19;45.18
63285;BME280;49409;55.708;37.522;2022-09-09T05:18:41;100289.84;;;15.30;44.00
63285;BME280;49409;55.708;37.522;2022-09-09T05:21:12;100305.13;;;15.38;44.54
63285;BME280;49409;55.708;37.522;2022-09-09T05:23:38;100306.06;;;15.51;44.69
63285;BME280;49409;55.708;37.522;2022-09-09T05:26:05;100310.59;;;15.61;44.29
63285;BME280;49409;55.708;37.522;2022-09-09T05:28:31;100310.81;;;15.71;43.59
63285;BME280;49409;55.708;37.522;2022-09-09T05:31:02;100304.41;;;15.74;43.71
63285;BME280;49409;55.708;37.522;2022-09-09T05:33:34;100295.09;;;15.64;43.16
63285;BME280;49409;55.708;37.522;2022-09-09T05:36:07;100294.28;;;15.63;42.78
63285;BME280;49409;55.708;37.522;2022-09-09T05:38:34;100293.41;;;15.50;43.25
63285;BME280;49409;55.708;37.522;2022-09-09T05:41:01;100287.00;;;15.53;43.17
63285;BME280;49409;55.708;37.522;2022-09-09T05:43:28;100303.44;;;15.64;42.85
63285;BME280;49409;55.708;37.522;2022-09-09T05:46:01;100305.84;;;15.82;42.71
63285;BME280;49409;55.708;37.522;2022-09-09T05:48:34;100314.88;;;15.86;42.35
63285;BME280;49409;55.708;37.522;2022-09-09T05:51:01;100291.34;;;15.74;41.41
63285;BME280;49409;55.708;37.522;2022-09-09T05:53:28;100312.72;;;15.74;41.21
63285;BME280;49409;55.708;37.522;2022-09-09T05:56:05;100293.69;;;15.76;40.93
63285;BME280;49409;55.708;37.522;2022-09-09T05:58:34;100314.88;;;15.86;41.90
63285;BME280;49409;55.708;37.522;2022-09-09T06:01:11;100326.13;;;15.79;41.83
63285;BME280;49409;55.708;37.522;2022-09-09T06:03:38;100306.44;;;15.70;41.27
63285;BME280;49409;55.708;37.522;2022-09-09T06:06:07;100303.50;;;15.60;41.28
63285;BME280;49409;55.708;37.522;2022-09-09T06:08:34;100308.69;;;15.58;40.77
63285;BME280;49409;55.708;37.522;2022-09-09T06:11:13;100320.91;;;15.81;41.61
63285;BME280;49409;55.708;37.522;2022-09-09T06:13:40;100305.75;;;15.65;40.67
63285;BME280;49409;55.708;37.522;2022-09-09T06:16:10;100311.38;;;15.82;41.15
63285;BME280;49409;55.708;37.522;2022-09-09T06:18:37;100310.94;;;15.63;40.73
63285;BME280;49409;55.708;37.522;2022-09-09T06:21:05;100321.75;;;15.58;40.88
63285;BME280;49409;55.708;37.522;2022-09-09T06:23:33;100334.66;;;15.88;40.70
63285;BME280;49409;55.708;37.522;2022-09-09T06:28:34;100348.00;;;15.93;39.81
63285;BME280;49409;55.708;37.522;2022-09-09T06:31:06;100305.69;;;15.69;39.39
63285;BME280;49409;55.708;37.522;2022-09-09T06:33:33;100338.63;;;15.87;39.30
63285;BME280;49409;55.708;37.522;2022-09-09T06:36:00;100335.50;;;15.85;39.14
63285;BME280;49409;55.708;37.522;2022-09-09T06:38:26;100318.91;;;15.81;39.05
63285;BME280;49409;55.708;37.522;2022-09-09T06:40:54;100346.28;;;15.99;39.32
63285;BME280;49409;55.708;37.522;2022-09-09T06:43:21;100336.91;;;15.93;38.92
63285;BME280;49409;55.708;37.522;2022-09-09T06:45:58;100346.44;;;15.92;39.22
63285;BME280;49409;55.708;37.522;2022-09-09T06:48:24;100306.63;;;15.62;38.72
63285;BME280;49409;55.708;37.522;2022-09-09T06:51:13;100349.91;;;15.80;38.51
63285;BME280;49409;55.708;37.522;2022-09-09T06:53:40;100344.34;;;15.80;38.74
63285;BME280;49409;55.708;37.522;2022-09-09T06:56:41;100365.06;;;16.12;38.90
63285;BME280;49409;55.708;37.522;2022-09-09T06:59:08;100358.41;;;15.89;38.33
63285;BME280;49409;55.708;37.522;2022-09-09T07:05:14;100370.28;;;16.10;38.08
63285;BME280;49409;55.708;37.522;2022-09-09T07:07:41;100355.44;;;15.80;37.94
63285;BME280;49409;55.708;37.522;2022-09-09T07:10:07;100346.94;;;15.67;37.81
63285;BME280;49409;55.708;37.522;2022-09-09T07:12:32;100355.59;;;15.73;37.83
63285;BME280;49409;55.708;37.522;2022-09-09T07:14:58;100374.28;;;15.69;37.43
63285;BME280;49409;55.708;37.522;2022-09-09T07:17:23;100371.94;;;15.87;38.97
63285;BME280;49409;55.708;37.522;2022-09-09T07:19:49;100371.66;;;16.18;36.81
63285;BME280;49409;55.708;37.522;2022-09-09T07:22:14;100369.09;;;16.43;36.25
63285;BME280;49409;55.708;37.522;2022-09-09T07:24:41;100375.78;;;16.62;36.52
63285;BME280;49409;55.708;37.522;2022-09-09T07:27:06;100356.59;;;16.68;36.49
63285;BME280;49409;55.708;37.522;2022-09-09T07:29:32;100374.16;;;16.65;36.13
63285;BME280;49409;55.708;37.522;2022-09-09T07:31:58;100367.63;;;16.55;36.31
63285;BME280;49409;55.708;37.522;2022-09-09T07:34:24;100383.88;;;16.57;36.52
63285;BME280;49409;55.708;37.522;2022-09-09T07:36:49;100394.25;;;16.53;36.39
63285;BME280;49409;55.708;37.522;2022-09-09T07:39:15;100396.59;;;16.38;36.12
63285;BME280;49409;55.708;37.522;2022-09-09T07:41:44;100397.28;;;16.25;36.26
63285;BME280;49409;55.708;37.522;2022-09-09T07:44:16;100386.25;;;16.22;36.57
63285;BME280;49409;55.708;37.522;2022-09-09T07:46:43;100403.88;;;16.15;36.05
63285;BME280;49409;55.708;37.522;2022-09-09T07:49:10;100384.59;;;15.88;36.03
63285;BME280;49409;55.708;37.522;2022-09-09T07:51:42;100392.66;;;15.82;35.66
63285;BME280;49409;55.708;37.522;2022-09-09T07:54:10;100401.97;;;15.92;35.93
63285;BME280;49409;55.708;37.522;2022-09-09T07:56:37;100391.44;;;16.03;35.14
63285;BME280;49409;55.708;37.522;2022-09-09T07:59:03;100397.91;;;16.33;34.82
63285;BME280;49409;55.708;37.522;2022-09-09T08:01:38;100416.69;;;16.62;35.13
63285;BME280;49409;55.708;37.522;2022-09-09T08:04:09;100412.25;;;16.64;34.86
63285;BME280;49409;55.708;37.522;2022-09-09T08:06:37;100410.25;;;16.49;34.77
63285;BME280;49409;55.708;37.522;2022-09-09T08:09:04;100391.88;;;16.55;34.86
63285;BME280;49409;55.708;37.522;2022-09-09T08:11:30;100390.81;;;16.65;34.68
63285;BME280;49409;55.708;37.522;2022-09-09T08:13:56;100400.41;;;16.97;34.56
63285;BME280;49409;55.708;37.522;2022-09-09T08:16:25;100410.81;;;17.09;34.91
63285;BME280;49409;55.708;37.522;2022-09-09T08:18:51;100394.28;;;17.18;34.44
63285;BME280;49409;55.708;37.522;2022-09-09T08:24:33;100398.53;;;17.23;34.39
63285;BME280;49409;55.708;37.522;2022-09-09T08:26:58;100418.00;;;17.23;34.72
63285;BME280;49409;55.708;37.522;2022-09-09T08:29:24;100403.53;;;16.99;34.64
63285;BME280;49409;55.708;37.522;2022-09-09T08:31:55;100418.63;;;16.98;35.42
63285;BME280;49409;55.708;37.522;2022-09-09T08:34:23;100417.75;;;17.01;34.64
63285;BME280;49409;55.708;37.522;2022-09-09T08:36:50;100394.75;;;17.00;35.57
63285;BME280;49409;55.708;37.522;2022-09-09T08:39:17;100414.56;;;17.32;35.33
63285;BME280;49409;55.708;37.522;2022-09-09T08:41:48;100418.41;;;17.38;34.57
63285;BME280;49409;55.708;37.522;2022-09-09T08:47:16;100422.41;;;17.66;34.63
63285;BME280;49409;55.708;37.522;2022-09-09T08:52:39;100417.72;;;17.34;35.01
63285;BME280;49409;55.708;37.522;2022-09-09T08:57:53;100427.31;;;17.16;34.82
63285;BME280;49409;55.708;37.522;2022-09-09T09:00:20;100431.50;;;17.08;34.75
63285;BME280;49409;55.708;37.522;2022-09-09T09:03:09;100430.97;;;17.13;35.22
63285;BME280;49409;55.708;37.522;2022-09-09T09:05:44;100437.03;;;16.92;35.15
63285;BME280;49409;55.708;37.522;2022-09-09T09:08:49;100431.13;;;17.06;34.71
63285;BME280;49409;55.708;37.522;2022-09-09T09:11:11;100429.53;;;17.38;35.64
63285;BME280;49409;55.708;37.522;2022-09-09T09:13:59;100434.31;;;17.67;35.02
63285;BME280;49409;55.708;37.522;2022-09-09T09:16:34;100433.19;;;17.35;34.22
63285;BME280;49409;55.708;37.522;2022-09-09T09:19:03;100421.13;;;17.25;34.24
63285;BME280;49409;55.708;37.522;2022-09-09T09:21:51;100423.19;;;17.37;33.75
63285;BME280;49409;55.708;37.522;2022-09-09T09:24:25;100424.34;;;17.23;33.51
63285;BME280;49409;55.708;37.522;2022-09-09T09:26:52;100409.41;;;17.17;33.79
63285;BME280;49409;55.708;37.522;2022-09-09T09:29:19;100412.91;;;17.05;33.35
63285;BME280;49409;55.708;37.522;2022-09-09T09:31:52;100425.66;;;17.19;33.47
63285;BME280;49409;55.708;37.522;2022-09-09T09:34:22;100437.03;;;17.24;33.70
63285;BME280;49409;55.708;37.522;2022-09-09T09:39:32;100387.66;;;17.29;33.85
63285;BME280;49409;55.708;37.522;2022-09-09T09:42:10;100428.31;;;17.39;33.24
63285;BME280;49409;55.708;37.522;2022-09-09T09:44:40;100402.63;;;17.18;33.72
63285;BME280;49409;55.708;37.522;2022-09-09T09:47:12;100409.13;;;17.12;33.94
63285;BME280;49409;55.708;37.522;2022-09-09T09:49:38;100407.03;;;17.16;33.93
63285;BME280;49409;55.708;37.522;2022-09-09T09:52:06;100431.03;;;17.10;34.38
63285;BME280;49409;55.708;37.522;2022-09-09T09:54:37;100426.28;;;17.10;33.99
63285;BME280;49409;55.708;37.522;2022-09-09T09:57:14;100422.97;;;17.15;34.66
63285;BME280;49409;55.708;37.522;2022-09-09T09:59:42;100420.88;;;17.03;34.21
63285;BME280;49409;55.708;37.522;2022-09-09T10:02:20;100407.03;;;17.16;34.23
63285;BME280;49409;55.708;37.522;2022-09-09T10:04:46;100407.34;;;17.05;33.27
63285;BME280;49409;55.708;37.522;2022-09-09T10:07:15;100404.56;;;17.05;33.49
63285;BME280;49409;55.708;37.522;2022-09-09T10:09:42;100426.84;;;17.18;34.06
63285;BME280;49409;55.708;37.522;2022-09-09T10:23:25;100421.56;;;17.07;34.82
63285;BME280;49409;55.708;37.522;2022-09-09T10:28:36;100432.63;;;17.11;34.09
63285;BME280;49409;55.708;37.522;2022-09-09T10:36:25;100433.91;;;17.22;33.91
63285;BME280;49409;55.708;37.522;2022-09-09T10:39:08;100433.53;;;17.37;34.16
63285;BME280;49409;55.708;37.522;2022-09-09T10:44:39;100439.28;;;17.30;33.64
63285;BME280;49409;55.708;37.522;2022-09-09T10:52:47;100438.19;;;16.94;33.44
63285;BME280;49409;55.708;37.522;2022-09-09T10:55:20;100437.38;;;16.77;33.78
63285;BME280;49409;55.708;37.522;2022-09-09T10:57:52;100432.53;;;16.81;33.26
63285;BME280;49409;55.708;37.522;2022-09-09T11:00:24;100420.38;;;16.92;33.59
63285;BME280;49409;55.708;37.522;2022-09-09T11:03:02;100423.47;;;17.27;33.79
63285;BME280;49409;55.708;37.522;2022-09-09T11:05:46;100440.16;;;17.27;34.45
63285;BME280;49409;55.708;37.522;2022-09-09T11:08:22;100435.41;;;17.11;34.46
63285;BME280;49409;55.708;37.522;2022-09-09T11:13:44;100433.66;;;17.00;35.09
63285;BME280;49409;55.708;37.522;2022-09-09T11:16:20;100440.97;;;16.94;34.90
63285;BME280;49409;55.708;37.522;2022-09-09T11:18:48;100435.19;;;16.69;35.11
63285;BME280;49409;55.708;37.522;2022-09-09T11:21:25;100440.50;;;16.63;35.54
63285;BME280;49409;55.708;37.522;2022-09-09T11:23:57;100437.09;;;16.55;35.08
63285;BME280;49409;55.708;37.522;2022-09-09T11:26:36;100441.16;;;16.51;34.90
63285;BME280;49409;55.708;37.522;2022-09-09T11:37:06;100438.59;;;17.09;34.39
63285;BME280;49409;55.708;37.522;2022-09-09T11:39:51;100440.97;;;17.11;34.34
63285;BME280;49409;55.708;37.522;2022-09-09T11:42:24;100444.78;;;17.00;33.71
63285;BME280;49409;55.708;37.522;2022-09-09T11:44:50;100434.28;;;17.08;33.52
63285;BME280;49409;55.708;37.522;2022-09-09T11:47:23;100439.66;;;17.15;32.68
63285;BME280;49409;55.708;37.522;2022-09-09T11:52:45;100428.81;;;17.50;33.65
63285;BME280;49409;55.708;37.522;2022-09-09T11:55:29;100408.78;;;17.55;34.05
63285;BME280;49409;55.708;37.522;2022-09-09T11:58:00;100427.88;;;17.70;33.45
63285;BME280;49409;55.708;37.522;2022-09-09T12:00:41;100428.47;;;17.77;33.31
63285;BME280;49409;55.708;37.522;2022-09-09T12:03:39;100426.81;;;17.80;33.68
63285;BME280;49409;55.708;37.522;2022-09-09T12:08:43;100440.75;;;17.34;33.72
63285;BME280;49409;55.708;37.522;2022-09-09T12:11:10;100437.91;;;17.21;34.08
63285;BME280;49409;55.708;37.522;2022-09-09T12:13:36;100433.47;;;17.08;33.76
63285;BME280;49409;55.708;37.522;2022-09-09T12:16:03;100421.53;;;16.94;34.40
63285;BME280;49409;55.708;37.522;2022-09-09T12:18:36;100424.09;;;17.01;34.94
63285;BME280;49409;55.708;37.522;2022-09-09T12:23:41;100428.19;;;16.97;35.39
63285;BME280;49409;55.708;37.522;2022-09-09T12:34:17;100429.56;;;17.21;34.64
63285;BME280;49409;55.708;37.522;2022-09-09T12:36:51;100433.22;;;17.18;34.50
63285;BME280;49409;55.708;37.522;2022-09-09T12:39:28;100421.56;;;17.07;34.19
63285;BME280;49409;55.708;37.522;2022-09-09T12:41:55;100429.56;;;17.05;33.79
63285;BME280;49409;55.708;37.522;2022-09-09T12:44:24;100423.31;;;17.01;34.24
63285;BME280;49409;55.708;37.522;2022-09-09T12:46:51;100410.53;;;17.03;33.81
63285;BME280;49409;55.708;37.522;2022-09-09T12:49:36;100413.50;;;17.13;33.36
63285;BME280;49409;55.708;37.522;2022-09-09T12:52:06;100424.34;;;17.23;33.43
63285;BME280;49409;55.708;37.522;2022-09-09T12:54:36;100423.56;;;17.23;33.71
63285;BME280;49409;55.708;37.522;2022-09-09T12:57:04;100413.38;;;17.33;34.39
63285;BME280;49409;55.708;37.522;2022-09-09T12:59:38;100407.50;;;17.43;33.57
63285;BME280;49409;55.708;37.522;2022-09-09T13:02:21;100424.84;;;17.64;34.07
63285;BME280;49409;55.708;37.522;2022-09-09T13:04:47;100417.34;;;17.32;33.12
63285;BME280;49409;55.708;37.522;2022-09-09T13:07:13;100418.28;;;17.12;33.40
63285;BME280;49409;55.708;37.522;2022-09-09T13:09:41;100423.03;;;17.12;33.59
63285;BME280;49409;55.708;37.522;2022-09-09T13:12:13;100419.56;;;17.08;33.76
63285;BME280;49409;55.708;37.522;2022-09-09T13:14:39;100409.16;;;16.95;34.17
63285;BME280;49409;55.708;37.522;2022-09-09T13:17:21;100413.59;;;17.09;34.46
63285;BME280;49409;55.708;37.522;2022-09-09T13:19:49;100423.16;;;17.08;34.47
63285;BME280;49409;55.708;37.522;2022-09-09T13:22:37;100425.47;;;17.26;34.83
63285;BME280;49409;55.708;37.522;2022-09-09T13:27:36;100423.84;;;17.12;34.32
63285;BME280;49409;55.708;37.522;2022-09-09T13:35:56;100437.41;;;17.10;34.69
63285;BME280;49409;55.708;37.522;2022-09-09T13:38:23;100428.88;;;17.01;34.57
63285;BME280;49409;55.708;37.522;2022-09-09T13:41:08;100421.41;;;17.14;34.95
63285;BME280;49409;55.708;37.522;2022-09-09T13:43:44;100430.97;;;17.13;34.53
63285;BME280;49409;55.708;37.522;2022-09-09T13:49:02;100427.13;;;17.07;34.22
63285;BME280;49409;55.708;37.522;2022-09-09T13:51:47;100417.59;;;17.08;33.91
63285;BME280;49409;55.708;37.522;2022-09-09T13:54:15;100424.53;;;17.00;33.83
63285;BME280;49409;55.708;37.522;2022-09-09T13:56:42;100420.88;;;17.03;33.93
63285;BME280;49409;55.708;37.522;2022-09-09T13:59:13;100419.16;;;17.09;34.58
63285;BME280;49409;55.708;37.522;2022-09-09T14:01:39;100403.53;;;16.82;33.78
63285;BME280;49409;55.708;37.522;2022-09-09T14:04:04;100426.91;;;16.85;33.70
63285;BME280;49409;55.708;37.522;2022-09-09T14:06:35;100416.53;;;16.69;34.03
63285;BME280;49409;55.708;37.522;2022-09-09T14:09:04;100417.56;;;16.75;34.25
63285;BME280;49409;55.708;37.522;2022-09-09T14:11:30;100410.44;;;16.74;34.37
63285;BME280;49409;55.708;37.522;2022-09-09T14:13:55;100425.72;;;16.66;34.54
63285;BME280;49409;55.708;37.522;2022-09-09T14:16:21;100400.78;;;16.46;35.09
63285;BME280;49409;55.708;37.522;2022-09-09T14:18:47;100406.78;;;16.61;34.97
63285;BME280;49409;55.708;37.522;2022-09-09T14:21:13;100424.88;;;16.69;35.06
63285;BME280;49409;55.708;37.522;2022-09-09T14:23:41;100402.59;;;16.53;35.05
63285;BME280;49409;55.708;37.522;2022-09-09T14:26:08;100404.38;;;16.63;34.73
63285;BME280;49409;55.708;37.522;2022-09-09T14:28:34;100399.44;;;16.71;35.26
63285;BME280;49409;55.708;37.522;2022-09-09T14:31:01;100404.78;;;16.78;34.96
63285;BME280;49409;55.708;37.522;2022-09-09T14:33:27;100417.94;;;16.94;34.96
63285;BME280;49409;55.708;37.522;2022-09-09T14:36:00;100397.56;;;16.80;35.02
63285;BME280;49409;55.708;37.522;2022-09-09T14:38:33;100419.75;;;16.84;35.27
63285;BME280;49409;55.708;37.522;2022-09-09T14:41:00;100398.81;;;16.79;35.21
63285;BME280;49409;55.708;37.522;2022-09-09T14:43:28;100407.31;;;16.72;35.22
63285;BME280;49409;55.708;37.522;2022-09-09T14:45:55;100404.38;;;16.63;35.22
63285;BME280;49409;55.708;37.522;2022-09-09T14:48:20;100414.25;;;16.64;35.33
63285;BME280;49409;55.708;37.522;2022-09-09T14:50:46;100426.75;;;16.56;35.42
63285;BME280;49409;55.708;37.522;2022-09-09T14:53:11;100426.56;;;16.46;35.66
63285;BME280;49409;55.708;37.522;2022-09-09T14:55:37;100400.50;;;16.24;35.88
63285;BME280;49409;55.708;37.522;2022-09-09T14:58:04;100412.28;;;16.28;35.90
63285;BME280;49409;55.708;37.522;2022-09-09T15:00:30;100418.19;;;16.30;36.41
63285;BME280;49409;55.708;37.522;2022-09-09T15:02:56;100414.72;;;16.26;35.75
63285;BME280;49409;55.708;37.522;2022-09-09T15:05:21;100415.31;;;16.17;36.22
63285;BME280;49409;55.708;37.522;2022-09-09T15:07:47;100418.25;;;16.10;35.87
63285;BME280;49409;55.708;37.522;2022-09-09T15:10:16;100414.53;;;15.97;35.83